Terminal Aerodrome Forecast
Issued by NWS

Home | Current Version | Previous Version | Text Only | Print | Product List | Glossary On
Versions: 1 2 3 4 5 6 7 8 9 10 11 12 13 14 15 16 17 18 19 20 21 22
000
FTUS41 KPHI 010525
TAFPNE
TAF
KPNE 010525Z 0106/0206 18005KT 3SM SHRA BR FEW009 BKN040
      TEMPO 0106/0110 26015G30KT 1SM +TSRA BR BKN015CB
     FM011000 22003KT 5SM BR SCT050
     FM011200 26007KT P6SM SCT050
     FM011600 27010G18KT P6SM BKN050
     FM012300 29006KT P6SM SCT050=

USA.gov is the U.S. government's official web portal to all federal, state and local government web resources and services.